Time;durP1;ratioP1;P1;durP2;ratioP2;P2;SDS_P1;SDS_P2;PMS_P1;PMS_P2;Temp;Humidity;BMP_temperature;BMP_pressure;BME280_temperature;BME280_humidity;BME280_pressure;Samples;Min_cycle;Max_cycle;Signal;HPM_P1;HPM_P2
2023/08/19 00:01:20;;;;;;;13.32;8.52;;;19.00;99.90;;;;;;5019811;28;20041;-85
2023/08/19 00:03:45;;;;;;;9.80;7.13;;;18.90;99.90;;;;;;5021161;28;20109;-86
2023/08/19 00:06:39;;;;;;;13.27;9.98;;;18.90;99.90;;;;;;5003976;28;20029;-85
2023/08/19 00:09:06;;;;;;;12.18;8.32;;;18.90;99.90;;;;;;5016830;28;20018;-85
2023/08/19 00:11:33;;;;;;;9.30;8.23;;;18.90;99.90;;;;;;5018930;28;20578;-85
2023/08/19 00:13:59;;;;;;;13.55;8.50;;;18.90;99.90;;;;;;5021116;28;20044;-85
2023/08/19 00:16:25;;;;;;;13.82;8.90;;;18.90;99.90;;;;;;5021515;28;20025;-85
2023/08/19 00:18:50;;;;;;;12.32;8.20;;;18.90;99.90;;;;;;5019534;28;20109;-86
2023/08/19 00:21:16;;;;;;;11.13;8.63;;;18.90;99.90;;;;;;5021571;28;20507;-85
2023/08/19 00:23:42;;;;;;;10.20;8.90;;;18.90;99.90;;;;;;5013330;28;20064;-85
2023/08/19 00:26:08;;;;;;;8.57;7.55;;;18.90;99.90;;;;;;5016754;28;20050;-85
2023/08/19 00:28:33;;;;;;;10.35;8.00;;;18.90;99.90;;;;;;5024152;28;20018;-85
2023/08/19 00:30:59;;;;;;;11.43;8.45;;;18.90;99.90;;;;;;5014055;28;20034;-85
2023/08/19 00:33:24;;;;;;;11.18;9.00;;;18.90;99.90;;;;;;5014862;28;20092;-85
2023/08/19 00:35:53;;;;;;;11.18;9.50;;;18.90;99.90;;;;;;5022070;28;20018;-85
2023/08/19 00:38:19;;;;;;;15.73;9.02;;;18.90;99.90;;;;;;5025275;28;20017;-85
2023/08/19 00:40:44;;;;;;;9.20;8.30;;;18.90;99.90;;;;;;5018613;28;20201;-85
2023/08/19 00:43:10;;;;;;;9.20;8.15;;;18.80;99.90;;;;;;5018144;28;20032;-85
2023/08/19 00:45:47;;;;;;;10.32;8.13;;;18.80;99.90;;;;;;5023927;28;20029;-85
2023/08/19 00:48:15;;;;;;;9.60;7.20;;;18.80;99.90;;;;;;5017862;28;20018;-85
2023/08/19 00:50:41;;;;;;;10.25;8.77;;;18.80;99.90;;;;;;5024818;28;20018;-86
2023/08/19 00:53:08;;;;;;;10.38;8.27;;;18.80;99.90;;;;;;5017933;28;20069;-86
2023/08/19 00:55:35;;;;;;;12.05;8.93;;;18.80;99.90;;;;;;5024107;28;20033;-85
2023/08/19 00:58:03;;;;;;;10.35;8.45;;;18.80;99.90;;;;;;5016962;28;20060;-85
2023/08/19 01:00:31;;;;;;;10.23;9.18;;;18.80;99.90;;;;;;5009709;28;20038;-86
2023/08/19 01:02:57;;;;;;;12.00;8.52;;;18.80;99.90;;;;;;5022506;28;20022;-85
2023/08/19 01:05:46;;;;;;;9.25;8.13;;;18.80;99.90;;;;;;5019561;28;20049;-85
2023/08/19 01:08:17;;;;;;;14.40;9.05;;;18.80;99.90;;;;;;4984409;28;20088;-85
2023/08/19 01:10:48;;;;;;;9.48;8.13;;;18.70;99.90;;;;;;5023275;28;20104;-86
2023/08/19 01:13:22;;;;;;;9.57;8.55;;;18.70;99.90;;;;;;5026098;28;20022;-85
2023/08/19 01:15:51;;;;;;;11.68;9.13;;;18.70;99.90;;;;;;5024407;28;20536;-86
2023/08/19 01:18:17;;;;;;;10.23;8.27;;;18.70;99.90;;;;;;5024109;28;20029;-85
2023/08/19 01:20:43;;;;;;;12.07;9.15;;;18.70;99.90;;;;;;5023748;28;20113;-86
2023/08/19 01:23:30;;;;;;;13.27;9.35;;;18.70;99.90;;;;;;5024793;28;20029;-85
2023/08/19 01:25:55;;;;;;;;;;;18.70;99.90;;;;;;5019684;28;20088;-86
2023/08/19 01:28:21;;;;;;;10.20;9.20;;;18.70;99.90;;;;;;5027575;28;19912;-85
2023/08/19 01:30:46;;;;;;;12.40;9.07;;;18.70;99.90;;;;;;5024407;28;20421;-85
2023/08/19 01:33:13;;;;;;;10.10;8.90;;;18.70;99.90;;;;;;5025890;28;20497;-85
2023/08/19 01:35:46;;;;;;;10.23;8.85;;;18.70;99.90;;;;;;5023279;28;20064;-85
2023/08/19 01:38:38;;;;;;;11.20;9.90;;;18.70;99.90;;;;;;5015832;28;20379;-85
2023/08/19 01:41:04;;;;;;;8.77;7.93;;;18.70;99.90;;;;;;5010348;28;20532;-86
2023/08/19 01:43:31;;;;;;;16.77;10.25;;;18.70;99.90;;;;;;5011511;28;20116;-85
2023/08/19 01:45:57;;;;;;;12.02;9.40;;;18.70;99.90;;;;;;5017217;28;20071;-85
2023/08/19 01:48:23;;;;;;;11.40;10.13;;;18.70;99.90;;;;;;5017595;28;20100;-85
2023/08/19 01:50:48;;;;;;;10.05;8.90;;;18.70;99.90;;;;;;5027835;28;20417;-86
2023/08/19 01:53:14;;;;;;;13.43;10.13;;;18.70;99.90;;;;;;5020765;28;20542;-86
2023/08/19 01:55:40;;;;;;;12.13;10.73;;;18.70;99.90;;;;;;5028406;28;20566;-85
2023/08/19 01:58:05;;;;;;;13.48;9.88;;;18.70;99.90;;;;;;5019094;28;20049;-85
2023/08/19 02:00:31;;;;;;;12.68;9.65;;;18.70;99.90;;;;;;5020602;28;20034;-85
2023/08/19 02:02:56;;;;;;;10.45;8.88;;;18.70;99.90;;;;;;5025486;28;20025;-85
2023/08/19 02:05:22;;;;;;;11.57;9.07;;;18.70;99.90;;;;;;5022252;28;20041;-85
2023/08/19 02:07:47;;;;;;;12.77;9.88;;;18.60;99.90;;;;;;5021268;28;20018;-85
2023/08/19 02:10:13;;;;;;;11.57;10.38;;;18.70;99.90;;;;;;5022399;28;20683;-86
2023/08/19 02:12:39;;;;;;;11.85;10.75;;;18.60;99.90;;;;;;5028919;28;20455;-85
2023/08/19 02:15:05;;;;;;;12.75;10.60;;;18.60;99.90;;;;;;5018098;28;20113;-86
2023/08/19 02:17:30;;;;;;;12.25;10.35;;;18.70;99.90;;;;;;5021490;28;20022;-85
2023/08/19 02:19:56;;;;;;;10.65;9.55;;;18.60;99.90;;;;;;5026739;28;20495;-85
2023/08/19 02:22:22;;;;;;;14.05;10.07;;;18.60;99.90;;;;;;5023594;28;20088;-85
2023/08/19 02:24:47;;;;;;;12.00;9.98;;;18.60;99.90;;;;;;5028185;28;20392;-87
2023/08/19 02:27:13;;;;;;;11.05;9.70;;;18.60;99.90;;;;;;5019009;28;20112;-86
2023/08/19 02:29:39;;;;;;;12.68;10.55;;;18.60;99.90;;;;;;5025147;28;20045;-86
2023/08/19 02:32:05;;;;;;;14.32;9.57;;;18.60;99.90;;;;;;5012580;28;20038;-85
2023/08/19 02:34:31;;;;;;;14.05;11.15;;;18.60;99.90;;;;;;5017088;28;20030;-86
2023/08/19 02:36:56;;;;;;;12.20;10.98;;;18.60;99.90;;;;;;5025630;28;20071;-87
2023/08/19 02:39:22;;;;;;;13.80;10.35;;;18.60;99.90;;;;;;5024324;28;20029;-85
2023/08/19 02:41:47;;;;;;;12.88;11.00;;;18.50;99.90;;;;;;5020902;28;20029;-86
2023/08/19 02:44:13;;;;;;;11.68;9.43;;;18.60;99.90;;;;;;5025059;28;20639;-87
2023/08/19 02:46:38;;;;;;;13.73;9.98;;;18.60;99.90;;;;;;5019505;28;20561;-86
2023/08/19 02:49:04;;;;;;;11.05;9.88;;;18.60;99.90;;;;;;5020794;28;20025;-84
2023/08/19 02:51:30;;;;;;;12.52;10.68;;;18.60;99.90;;;;;;5018668;28;20116;-86
2023/08/19 02:53:55;;;;;;;14.30;11.25;;;18.50;99.90;;;;;;5018876;28;20032;-85
2023/08/19 02:56:21;;;;;;;12.30;10.27;;;18.50;99.90;;;;;;5021076;28;20054;-86
2023/08/19 02:58:46;;;;;;;14.27;10.93;;;18.50;99.90;;;;;;5020694;28;20029;-86
2023/08/19 03:01:13;;;;;;;18.17;10.93;;;18.50;99.90;;;;;;5024572;28;20103;-85
2023/08/19 03:03:39;;;;;;;13.15;9.80;;;18.50;99.90;;;;;;5021385;28;20092;-87
2023/08/19 03:06:04;;;;;;;12.93;10.90;;;18.50;99.90;;;;;;5023093;28;20480;-85
2023/08/19 03:08:30;;;;;;;18.13;10.95;;;18.50;99.90;;;;;;5024653;28;20104;-85
2023/08/19 03:10:56;;;;;;;11.38;10.18;;;18.50;99.90;;;;;;5017107;28;20444;-86
2023/08/19 03:13:21;;;;;;;15.00;11.10;;;18.40;99.90;;;;;;5023533;28;20029;-86
2023/08/19 03:15:47;;;;;;;15.30;10.63;;;18.40;99.90;;;;;;5012092;28;20022;-87
2023/08/19 03:18:14;;;;;;;19.10;11.98;;;18.40;99.90;;;;;;5025147;28;20376;-86
2023/08/19 03:20:41;;;;;;;13.38;11.90;;;18.40;99.90;;;;;;5016848;28;20080;-86
2023/08/19 03:23:06;;;;;;;14.45;10.18;;;18.40;99.90;;;;;;5017927;28;20017;-87
2023/08/19 03:25:32;;;;;;;15.63;10.60;;;18.40;99.90;;;;;;5023222;28;20036;-85
2023/08/19 03:27:58;;;;;;;15.18;10.68;;;18.40;99.90;;;;;;5021157;28;20123;-86
2023/08/19 03:30:23;;;;;;;13.77;11.35;;;18.40;99.90;;;;;;5019613;28;20045;-86
2023/08/19 03:32:49;;;;;;;23.15;11.57;;;18.40;99.90;;;;;;5019359;28;20026;-82
2023/08/19 03:35:14;;;;;;;14.05;10.98;;;18.40;99.90;;;;;;5025188;28;20502;-85
2023/08/19 03:37:40;;;;;;;14.23;10.75;;;18.40;99.90;;;;;;5022389;28;20032;-85
2023/08/19 03:40:06;;;;;;;10.77;9.68;;;18.30;99.90;;;;;;5024834;28;20103;-86
2023/08/19 03:42:32;;;;;;;11.57;10.48;;;18.30;99.90;;;;;;5016431;28;20082;-85
2023/08/19 03:44:57;;;;;;;11.02;9.95;;;18.30;99.90;;;;;;5014347;28;20393;-87
2023/08/19 03:47:23;;;;;;;15.70;10.65;;;18.30;99.90;;;;;;5011446;28;20017;-86
2023/08/19 03:49:51;;;;;;;12.27;10.98;;;18.30;99.90;;;;;;5024148;28;20021;-86
2023/08/19 03:52:17;;;;;;;10.43;9.32;;;18.30;99.90;;;;;;5025877;28;20026;-87
2023/08/19 03:54:43;;;;;;;13.27;10.00;;;18.30;99.90;;;;;;5021947;28;20037;-85
2023/08/19 03:57:08;;;;;;;11.32;9.75;;;18.30;99.90;;;;;;5015107;28;20033;-86
2023/08/19 03:59:34;;;;;;;12.30;10.05;;;18.30;99.90;;;;;;5024507;28;20037;-86
2023/08/19 04:01:59;;;;;;;14.52;11.63;;;18.30;99.90;;;;;;5021073;28;20612;-85
2023/08/19 04:04:25;;;;;;;13.57;9.32;;;18.30;99.90;;;;;;5019554;28;20503;-86
2023/08/19 04:06:50;;;;;;;11.65;10.15;;;18.30;99.90;;;;;;5020490;28;20535;-86
2023/08/19 04:09:16;;;;;;;10.73;9.65;;;18.20;99.90;;;;;;5026111;28;20585;-84
2023/08/19 04:11:42;;;;;;;12.13;9.65;;;18.20;99.90;;;;;;5023661;28;20030;-85
2023/08/19 04:14:08;;;;;;;12.95;10.13;;;18.30;99.90;;;;;;5019077;28;20033;-87
2023/08/19 04:16:36;;;;;;;14.00;10.27;;;18.20;99.90;;;;;;5017419;28;20025;-86
2023/08/19 04:19:02;;;;;;;12.82;9.68;;;18.20;99.90;;;;;;5011982;28;20554;-86
2023/08/19 04:21:27;;;;;;;11.30;9.68;;;18.20;99.90;;;;;;5010636;28;20049;-86
2023/08/19 04:23:53;;;;;;;14.38;10.90;;;18.20;99.90;;;;;;5021436;28;20036;-85
2023/08/19 04:26:18;;;;;;;11.88;9.45;;;18.30;99.90;;;;;;5025955;28;20028;-88
2023/08/19 04:28:44;;;;;;;12.32;9.90;;;18.20;99.90;;;;;;5027168;28;20021;-86
2023/08/19 04:31:11;;;;;;;10.95;9.85;;;18.20;99.90;;;;;;5010274;28;20042;-85
2023/08/19 04:33:36;;;;;;;11.32;10.18;;;18.30;99.90;;;;;;5025008;28;20022;-86
2023/08/19 04:36:03;;;;;;;10.88;9.70;;;18.20;99.90;;;;;;5020913;28;20037;-86
2023/08/19 04:38:29;;;;;;;13.50;10.27;;;18.20;99.90;;;;;;5018817;28;20030;-86
2023/08/19 04:40:56;;;;;;;11.25;9.32;;;18.20;99.90;;;;;;5015765;28;20608;-86
2023/08/19 04:43:22;;;;;;;10.05;9.02;;;18.20;99.90;;;;;;5018583;28;20061;-85
2023/08/19 04:45:48;;;;;;;13.60;10.95;;;18.20;99.90;;;;;;5021594;28;20052;-86
2023/08/19 04:48:13;;;;;;;10.90;9.35;;;18.30;99.90;;;;;;5014539;28;20026;-86
2023/08/19 04:50:39;;;;;;;11.88;9.55;;;18.30;99.90;;;;;;5030551;28;20497;-85
2023/08/19 04:53:05;;;;;;;10.13;9.15;;;18.30;99.90;;;;;;5024008;28;20129;-86
2023/08/19 04:55:31;;;;;;;11.60;10.07;;;18.30;99.90;;;;;;5021505;28;20026;-86
2023/08/19 04:57:56;;;;;;;10.45;9.38;;;18.30;99.90;;;;;;5016518;28;20021;-86
2023/08/19 05:00:22;;;;;;;10.98;9.32;;;18.30;99.90;;;;;;5013729;28;20129;-86
2023/08/19 05:02:49;;;;;;;11.88;10.13;;;18.30;99.90;;;;;;5023112;28;20025;-87
2023/08/19 05:05:14;;;;;;;11.85;10.68;;;18.40;99.90;;;;;;5027087;28;20034;-85
2023/08/19 05:07:40;;;;;;;11.43;10.25;;;18.40;99.90;;;;;;5023936;28;20087;-86
2023/08/19 05:10:06;;;;;;;18.50;10.82;;;18.40;99.90;;;;;;5027036;28;20029;-86
2023/08/19 05:12:32;;;;;;;11.30;10.20;;;18.40;99.90;;;;;;5023088;28;20065;-86
2023/08/19 05:14:57;;;;;;;12.60;10.73;;;18.40;99.90;;;;;;5025527;28;20065;-86
2023/08/19 05:17:23;;;;;;;11.65;10.10;;;18.40;99.90;;;;;;5027252;28;20395;-86
2023/08/19 05:19:49;;;;;;;12.45;10.02;;;18.50;99.90;;;;;;5026614;28;20057;-87
2023/08/19 05:22:15;;;;;;;10.15;9.18;;;18.50;99.90;;;;;;5031298;28;20472;-85
2023/08/19 05:24:41;;;;;;;17.20;10.65;;;18.50;99.90;;;;;;5013093;28;20037;-86
2023/08/19 05:27:06;;;;;;;10.85;9.40;;;18.50;99.90;;;;;;5018974;28;20119;-86
2023/08/19 05:29:32;;;;;;;11.07;9.48;;;18.60;99.90;;;;;;5024616;28;20049;-88
2023/08/19 05:31:58;;;;;;;11.13;9.07;;;18.60;99.90;;;;;;5017976;28;20095;-86
2023/08/19 05:34:27;;;;;;;13.25;9.10;;;18.60;99.90;;;;;;5018170;28;20022;-85
2023/08/19 05:36:53;;;;;;;11.57;10.10;;;18.60;99.90;;;;;;5028125;28;20032;-86
2023/08/19 05:39:20;;;;;;;11.85;9.45;;;18.70;99.90;;;;;;5024718;28;20030;-86
2023/08/19 05:41:46;;;;;;;10.25;9.23;;;18.70;99.90;;;;;;5021668;28;20030;-85
2023/08/19 05:44:11;;;;;;;11.75;9.13;;;18.80;99.90;;;;;;5013142;28;20092;-86
2023/08/19 05:46:37;;;;;;;11.35;9.77;;;18.80;99.90;;;;;;5019455;28;20626;-86
2023/08/19 05:49:03;;;;;;;17.60;10.05;;;18.80;99.90;;;;;;5020825;28;20026;-86
2023/08/19 05:51:29;;;;;;;9.93;8.27;;;18.90;99.90;;;;;;5025898;28;20029;-86
2023/08/19 05:53:58;;;;;;;11.13;9.07;;;19.00;99.90;;;;;;5013408;28;20083;-85
2023/08/19 05:56:24;;;;;;;17.17;9.48;;;19.00;99.90;;;;;;5019286;28;20022;-86
2023/08/19 05:58:50;;;;;;;11.60;9.57;;;19.00;99.90;;;;;;5022582;28;20161;-86
2023/08/19 06:01:16;;;;;;;10.05;9.10;;;19.10;99.90;;;;;;5020594;28;20128;-87
2023/08/19 06:03:41;;;;;;;10.05;8.95;;;19.20;99.90;;;;;;5018326;28;20038;-88
2023/08/19 06:06:07;;;;;;;12.63;9.48;;;19.20;99.90;;;;;;5021348;28;20436;-86
2023/08/19 06:08:33;;;;;;;10.68;9.05;;;19.30;99.90;;;;;;5024215;28;20439;-86
2023/08/19 06:11:02;;;;;;;11.05;9.90;;;19.30;99.90;;;;;;5024944;28;20433;-85
2023/08/19 06:13:28;;;;;;;12.50;8.80;;;19.40;99.90;;;;;;5021384;28;20018;-86
2023/08/19 06:15:55;;;;;;;10.38;9.30;;;19.50;99.90;;;;;;5020026;28;20105;-86
2023/08/19 06:18:21;;;;;;;11.02;8.77;;;19.50;99.90;;;;;;5020055;28;20036;-85
2023/08/19 06:20:47;;;;;;;11.73;9.98;;;19.60;99.90;;;;;;5024112;28;20021;-87
2023/08/19 06:23:13;;;;;;;10.18;9.10;;;19.70;99.90;;;;;;5025292;28;20024;-87
2023/08/19 06:25:39;;;;;;;10.60;9.23;;;19.80;99.90;;;;;;5021843;28;20057;-85
2023/08/19 06:28:07;;;;;;;11.88;9.90;;;19.90;99.90;;;;;;5017844;28;20440;-87
2023/08/19 06:30:33;;;;;;;15.80;9.00;;;19.90;99.90;;;;;;5025094;28;20041;-86
2023/08/19 06:32:59;;;;;;;8.75;7.97;;;20.00;99.90;;;;;;5011216;28;20034;-86
2023/08/19 06:35:25;;;;;;;12.20;9.30;;;20.10;99.90;;;;;;5023680;28;20036;-86
2023/08/19 06:37:56;;;;;;;10.35;9.35;;;20.10;99.90;;;;;;5015665;28;20049;-85
2023/08/19 06:40:26;;;;;;;9.38;8.23;;;20.20;99.90;;;;;;5023661;28;20035;-85
2023/08/19 06:42:52;;;;;;;9.63;8.43;;;20.20;99.90;;;;;;5007031;28;20031;-86
2023/08/19 06:45:18;;;;;;;10.30;9.27;;;20.40;99.90;;;;;;5024111;28;20071;-86
2023/08/19 06:47:45;;;;;;;10.15;9.13;;;20.40;99.90;;;;;;5021531;28;20025;-86
2023/08/19 06:50:13;;;;;;;10.70;9.60;;;20.50;99.90;;;;;;5012009;28;20048;-86
2023/08/19 06:52:39;;;;;;;11.18;9.38;;;20.60;99.90;;;;;;5013048;28;20129;-85
2023/08/19 06:55:05;;;;;;;10.57;9.48;;;20.70;99.90;;;;;;5023926;28;20036;-87
2023/08/19 06:57:38;;;;;;;13.35;8.70;;;20.80;99.90;;;;;;5026929;28;20060;-85
2023/08/19 07:00:09;;;;;;;10.25;9.20;;;20.90;99.90;;;;;;5016647;28;20098;-86
2023/08/19 07:02:36;;;;;;;9.73;8.43;;;21.10;99.90;;;;;;5021737;28;20025;-86
2023/08/19 07:05:14;;;;;;;9.00;8.13;;;21.20;99.90;;;;;;5019861;28;20025;-86
2023/08/19 07:07:48;;;;;;;9.05;8.15;;;21.30;99.90;;;;;;5019780;28;20025;-86
2023/08/19 07:10:19;;;;;;;9.20;8.15;;;21.50;99.90;;;;;;5023975;28;20113;-83
2023/08/19 07:12:45;;;;;;;9.30;8.10;;;21.60;99.90;;;;;;5017938;28;20029;-87
2023/08/19 07:15:12;;;;;;;9.43;7.97;;;21.80;99.90;;;;;;5026328;28;20025;-86
2023/08/19 07:17:47;;;;;;;9.73;7.82;;;21.90;99.90;;;;;;5009721;28;20030;-86
2023/08/19 07:20:22;;;;;;;;;;;22.00;99.90;;;;;;5017271;28;20381;-86
2023/08/19 07:22:51;;;;;;;9.40;7.20;;;22.10;99.90;;;;;;5019846;28;19911;-87
2023/08/19 07:25:17;;;;;;;11.75;7.65;;;22.20;99.90;;;;;;5015848;28;20030;-85
2023/08/19 07:27:44;;;;;;;8.52;7.80;;;22.30;99.90;;;;;;5021331;28;20101;-86
2023/08/19 07:30:11;;;;;;;8.60;7.63;;;22.40;99.90;;;;;;5019043;28;20022;-86
2023/08/19 07:32:38;;;;;;;7.50;6.78;;;22.60;99.90;;;;;;5014627;28;20105;-86
2023/08/19 07:35:04;;;;;;;9.05;7.20;;;22.70;99.90;;;;;;5020779;28;20025;-84
2023/08/19 07:37:30;;;;;;;9.13;8.25;;;22.80;99.90;;;;;;5024948;28;20078;-86
2023/08/19 07:39:57;;;;;;;9.60;8.57;;;22.90;99.90;;;;;;5023703;28;20104;-85
2023/08/19 07:42:23;;;;;;;9.65;8.07;;;23.00;99.90;;;;;;5022348;28;20033;-87
2023/08/19 07:44:49;;;;;;;8.38;7.35;;;23.10;99.90;;;;;;5016820;28;20036;-86
2023/08/19 07:47:14;;;;;;;7.95;7.22;;;23.20;99.90;;;;;;5026151;28;20025;-84
2023/08/19 07:49:40;;;;;;;8.32;7.60;;;23.30;99.90;;;;;;5016740;28;20013;-85
2023/08/19 07:52:06;;;;;;;9.23;8.32;;;23.40;99.90;;;;;;5027317;28;20026;-88
2023/08/19 07:54:31;;;;;;;8.35;7.22;;;23.50;99.90;;;;;;5031334;28;20029;-88
2023/08/19 07:56:58;;;;;;;8.98;7.95;;;23.60;99.90;;;;;;5023456;28;20029;-86
2023/08/19 07:59:25;;;;;;;8.80;7.93;;;23.70;99.90;;;;;;5022947;28;20060;-86
2023/08/19 08:01:50;;;;;;;8.68;7.78;;;23.80;99.90;;;;;;5025630;28;20026;-86
2023/08/19 08:04:16;;;;;;;9.88;7.68;;;23.90;99.90;;;;;;5024549;28;20021;-86
2023/08/19 08:06:42;;;;;;;8.90;7.53;;;24.00;99.90;;;;;;5015516;28;20112;-86
2023/08/19 08:09:08;;;;;;;8.25;7.38;;;24.10;99.90;;;;;;5024704;28;20468;-87
2023/08/19 08:11:34;;;;;;;7.90;7.10;;;24.20;99.90;;;;;;5020639;28;20024;-87
2023/08/19 08:13:59;;;;;;;8.15;7.35;;;24.30;99.90;;;;;;5018164;28;20030;-86
2023/08/19 08:16:25;;;;;;;8.75;7.40;;;24.50;99.90;;;;;;5025648;28;20029;-87
2023/08/19 08:18:51;;;;;;;8.32;7.40;;;24.60;99.90;;;;;;5017904;28;20026;-86
2023/08/19 08:21:19;;;;;;;7.55;6.82;;;24.60;99.90;;;;;;5025997;28;20056;-85
2023/08/19 08:23:44;;;;;;;16.92;7.93;;;24.80;99.90;;;;;;5021962;28;20021;-87
2023/08/19 08:26:10;;;;;;;9.70;7.97;;;24.90;99.90;;;;;;5024019;28;20539;-86
2023/08/19 08:28:36;;;;;;;10.93;7.93;;;24.90;99.90;;;;;;5019379;28;20105;-86
2023/08/19 08:31:02;;;;;;;8.70;7.80;;;25.10;99.90;;;;;;5017096;28;20045;-86
2023/08/19 08:33:27;;;;;;;10.20;6.93;;;25.20;99.90;;;;;;5009385;28;20449;-84
2023/08/19 08:35:53;;;;;;;8.45;7.68;;;25.20;99.90;;;;;;5020339;28;20068;-84
2023/08/19 08:38:19;;;;;;;8.75;7.18;;;25.20;99.90;;;;;;5024094;28;20535;-85
2023/08/19 08:40:45;;;;;;;12.32;8.23;;;25.30;99.90;;;;;;5024863;28;20034;-85
2023/08/19 08:43:10;;;;;;;9.98;7.90;;;25.40;99.90;;;;;;5044008;28;20089;-84
2023/08/19 08:45:37;;;;;;;8.13;7.38;;;25.40;99.90;;;;;;5025920;28;20033;-86
2023/08/19 08:48:04;;;;;;;8.10;7.30;;;25.30;99.90;;;;;;5018920;28;20057;-86
2023/08/19 08:50:30;;;;;;;8.00;7.20;;;25.20;99.90;;;;;;5025384;28;20018;-85
2023/08/19 08:52:57;;;;;;;9.18;7.65;;;25.10;99.90;;;;;;5019551;28;20473;-84
2023/08/19 08:55:23;;;;;;;8.50;7.68;;;25.10;99.90;;;;;;5017208;28;20025;-85
2023/08/19 08:57:49;;;;;;;8.10;7.40;;;25.20;99.90;;;;;;5015304;28;20119;-85
2023/08/19 09:00:17;;;;;;;7.72;7.03;;;25.30;99.90;;;;;;5025237;28;20487;-85
2023/08/19 09:02:44;;;;;;;7.00;6.28;;;25.40;99.90;;;;;;5020930;28;20071;-85
2023/08/19 09:05:11;;;;;;;8.30;6.90;;;25.50;99.90;;;;;;5023819;28;20037;-86
2023/08/19 09:07:41;;;;;;;8.55;7.78;;;25.60;99.90;;;;;;5019239;28;20492;-84
2023/08/19 09:10:15;;;;;;;7.88;7.15;;;25.70;99.90;;;;;;5018517;28;20120;-85
2023/08/19 09:12:50;;;;;;;8.70;7.82;;;25.80;99.90;;;;;;5021863;28;20036;-85
2023/08/19 09:15:17;;;;;;;8.77;7.80;;;25.80;99.90;;;;;;5020240;28;20029;-85
2023/08/19 09:17:44;;;;;;;11.00;7.43;;;25.90;99.90;;;;;;5015903;28;20125;-82
2023/08/19 09:20:12;;;;;;;8.43;7.72;;;26.00;99.90;;;;;;5014024;28;20026;-84
2023/08/19 09:22:42;;;;;;;9.00;8.10;;;26.10;99.90;;;;;;5024471;28;20029;-84
2023/08/19 09:25:12;;;;;;;8.18;7.38;;;26.10;99.90;;;;;;5015189;28;20048;-85
2023/08/19 09:27:38;;;;;;;8.00;7.30;;;26.10;99.90;;;;;;5020902;28;20028;-85
2023/08/19 09:30:04;;;;;;;10.50;8.20;;;26.10;99.90;;;;;;5012137;28;20113;-83
2023/08/19 09:32:35;;;;;;;8.73;7.93;;;26.00;99.90;;;;;;5015654;28;20109;-85
2023/08/19 09:35:05;;;;;;;8.43;7.63;;;25.90;99.90;;;;;;5022145;28;20026;-84
2023/08/19 09:37:32;;;;;;;8.98;7.53;;;25.90;99.90;;;;;;5020666;28;20029;-85
2023/08/19 09:39:58;;;;;;;8.75;7.93;;;25.90;99.90;;;;;;5025984;28;20030;-84
2023/08/19 09:42:26;;;;;;;8.80;8.00;;;25.90;99.90;;;;;;5021985;28;20042;-83
2023/08/19 09:44:52;;;;;;;8.40;7.70;;;25.90;99.90;;;;;;5019391;28;20033;-86
2023/08/19 09:47:19;;;;;;;9.25;8.32;;;26.00;99.90;;;;;;5021041;28;20105;-83
2023/08/19 09:49:44;;;;;;;9.10;8.05;;;26.10;99.90;;;;;;5027339;28;20566;-85
2023/08/19 09:52:19;;;;;;;8.63;7.88;;;26.10;99.90;;;;;;5021353;28;20022;-83
2023/08/19 09:54:52;;;;;;;8.02;7.32;;;26.20;99.90;;;;;;5026837;28;20437;-83
2023/08/19 09:57:19;;;;;;;8.85;7.63;;;26.20;99.90;;;;;;5021425;28;20037;-83
2023/08/19 09:59:44;;;;;;;8.07;7.30;;;26.20;99.90;;;;;;5015584;28;20070;-84
2023/08/19 10:02:14;;;;;;;8.63;7.88;;;26.20;99.90;;;;;;5023860;28;20041;-83
2023/08/19 10:04:40;;;;;;;8.63;7.93;;;26.20;99.90;;;;;;5026320;28;20021;-85
2023/08/19 10:07:09;;;;;;;8.85;7.95;;;26.30;99.90;;;;;;5025220;28;20113;-85
2023/08/19 10:09:38;;;;;;;9.65;8.43;;;26.30;99.90;;;;;;5023665;28;20366;-85
2023/08/19 10:12:05;;;;;;;11.00;8.10;;;26.30;99.90;;;;;;5024779;28;20718;-84
2023/08/19 10:14:31;;;;;;;9.63;8.25;;;26.30;99.90;;;;;;5019816;28;20128;-85
2023/08/19 10:17:02;;;;;;;8.95;8.07;;;26.40;99.90;;;;;;5015901;28;20032;-84
2023/08/19 10:19:31;;;;;;;9.55;8.65;;;26.50;99.90;;;;;;5021875;28;20025;-83
2023/08/19 10:21:59;;;;;;;8.57;7.80;;;26.60;99.90;;;;;;5024380;28;20085;-85
2023/08/19 10:24:29;;;;;;;8.82;7.82;;;26.60;99.90;;;;;;5021202;28;20238;-83
2023/08/19 10:26:54;;;;;;;9.27;8.25;;;26.70;99.90;;;;;;5016010;28;20021;-83
2023/08/19 10:29:20;;;;;;;8.65;7.85;;;26.70;99.90;;;;;;5021547;28;20044;-83
2023/08/19 10:31:46;;;;;;;10.82;8.20;;;26.80;99.90;;;;;;5022748;28;20516;-83
2023/08/19 10:34:27;;;;;;;8.70;8.00;;;26.80;99.90;;;;;;5020088;28;20053;-84
2023/08/19 10:37:06;;;;;;;9.50;8.60;;;26.80;99.90;;;;;;5025416;28;20025;-84
2023/08/19 10:39:31;;;;;;;8.88;8.05;;;26.80;99.90;;;;;;5023854;28;20473;-85
2023/08/19 10:41:57;;;;;;;12.10;9.90;;;26.90;99.90;;;;;;5025250;28;20028;-87
2023/08/19 10:44:27;;;;;;;9.30;8.40;;;26.90;99.90;;;;;;5024966;28;20600;-85
2023/08/19 10:47:10;;;;;;;9.13;8.32;;;27.00;99.90;;;;;;5021121;28;20180;-84
2023/08/19 10:49:37;;;;;;;10.80;8.82;;;27.00;99.90;;;;;;5018714;28;20037;-84
2023/08/19 10:52:03;;;;;;;10.10;8.07;;;27.00;99.90;;;;;;5024431;28;20528;-83
2023/08/19 10:54:43;;;;;;;8.85;7.95;;;27.00;99.90;;;;;;5013070;28;20397;-81
2023/08/19 10:57:16;;;;;;;10.07;9.07;;;27.10;99.90;;;;;;5019858;28;20500;-84
2023/08/19 10:59:47;;;;;;;9.98;9.07;;;27.10;99.90;;;;;;5020398;28;20053;-83
2023/08/19 11:02:13;;;;;;;12.30;8.45;;;27.10;99.90;;;;;;5015807;28;20616;-81
2023/08/19 11:04:41;;;;;;;10.48;9.30;;;27.10;99.90;;;;;;5028292;28;20056;-85
2023/08/19 11:07:07;;;;;;;9.10;8.30;;;27.20;99.90;;;;;;5022681;28;20037;-84
2023/08/19 11:09:33;;;;;;;10.32;8.60;;;27.20;99.90;;;;;;5028306;28;20033;-84
2023/08/19 11:11:59;;;;;;;9.48;8.55;;;27.20;99.90;;;;;;5022123;28;20440;-85
2023/08/19 11:14:25;;;;;;;9.70;8.82;;;27.20;99.90;;;;;;5029755;28;20021;-85
2023/08/19 11:16:52;;;;;;;8.88;8.02;;;27.30;99.90;;;;;;5022004;28;20278;-84
2023/08/19 11:19:18;;;;;;;10.30;9.13;;;27.40;99.90;;;;;;5023066;28;20033;-82
2023/08/19 11:21:45;;;;;;;9.80;8.60;;;27.40;99.90;;;;;;5029941;28;20527;-84
2023/08/19 11:24:11;;;;;;;9.27;8.30;;;27.40;99.90;;;;;;5021978;28;20079;-84
2023/08/19 11:26:38;;;;;;;9.32;8.18;;;27.50;99.90;;;;;;5028684;28;20029;-85
2023/08/19 11:29:05;;;;;;;9.88;8.88;;;27.50;99.90;;;;;;5018554;28;20045;-84
2023/08/19 11:31:30;;;;;;;11.45;8.27;;;27.50;99.90;;;;;;5022200;28;20025;-85
2023/08/19 11:33:56;;;;;;;9.38;8.57;;;27.60;99.90;;;;;;5024629;28;20017;-84
2023/08/19 11:36:26;;;;;;;8.52;7.80;;;27.60;99.90;;;;;;5021695;28;20056;-83
2023/08/19 11:38:57;;;;;;;10.23;8.93;;;27.70;99.90;;;;;;5005308;28;20459;-84
2023/08/19 11:41:23;;;;;;;9.02;7.75;;;27.70;99.90;;;;;;5022129;28;20026;-84
2023/08/19 11:43:53;;;;;;;9.50;8.65;;;27.70;99.90;;;;;;5004803;28;20555;-84
2023/08/19 11:46:19;;;;;;;9.65;8.68;;;27.70;99.90;;;;;;5017355;28;20025;-82
2023/08/19 11:48:46;;;;;;;9.55;8.75;;;27.80;99.90;;;;;;5020960;28;20468;-82
2023/08/19 11:51:12;;;;;;;10.40;9.20;;;27.80;99.90;;;;;;5022503;28;20042;-84
2023/08/19 11:53:39;;;;;;;10.02;8.38;;;27.80;99.90;;;;;;5020537;28;20030;-83
2023/08/19 11:56:05;;;;;;;8.85;8.05;;;27.80;99.90;;;;;;5016616;28;20021;-82
2023/08/19 11:58:50;;;;;;;9.52;8.68;;;27.80;99.90;;;;;;5020227;28;20022;-82
2023/08/19 12:01:24;;;;;;;10.13;9.13;;;27.80;99.90;;;;;;5019183;28;20061;-83
2023/08/19 12:03:51;;;;;;;9.45;8.65;;;27.80;99.90;;;;;;5018384;28;20563;-83
2023/08/19 12:06:18;;;;;;;9.40;8.48;;;27.80;99.90;;;;;;5025593;28;20021;-83
2023/08/19 12:08:45;;;;;;;10.43;9.38;;;27.70;99.90;;;;;;5016674;28;20092;-83
2023/08/19 12:11:12;;;;;;;9.35;8.52;;;27.70;99.90;;;;;;5022768;28;20075;-84
2023/08/19 12:13:38;;;;;;;8.88;8.10;;;27.60;99.90;;;;;;5021692;28;20017;-84
2023/08/19 12:16:05;;;;;;;10.32;8.50;;;27.60;99.90;;;;;;5028232;28;20052;-83
2023/08/19 12:18:32;;;;;;;10.00;9.02;;;27.50;99.90;;;;;;5021170;28;20644;-84
2023/08/19 12:20:59;;;;;;;9.60;8.70;;;27.40;99.90;;;;;;5021417;28;20029;-83
2023/08/19 12:23:25;;;;;;;8.65;7.95;;;27.40;99.90;;;;;;5021146;28;20078;-83
2023/08/19 12:25:52;;;;;;;9.63;8.73;;;27.40;99.90;;;;;;5019865;28;20022;-84
2023/08/19 12:28:18;;;;;;;9.25;8.38;;;27.30;99.90;;;;;;5014352;28;20026;-83
2023/08/19 12:30:44;;;;;;;10.05;9.05;;;27.30;99.90;;;;;;5023962;28;20053;-85
2023/08/19 12:33:11;;;;;;;9.43;8.63;;;27.20;99.90;;;;;;5017187;28;20037;-84
2023/08/19 12:35:37;;;;;;;9.60;8.63;;;27.20;99.90;;;;;;5024203;28;20036;-86
2023/08/19 12:38:05;;;;;;;9.32;8.52;;;27.20;99.90;;;;;;5018148;28;20025;-84
2023/08/19 12:40:30;;;;;;;10.60;8.73;;;27.20;99.90;;;;;;5025950;28;20114;-83